sensor_id;sensor_type;location;lat;lon;timestamp;P1;durP1;ratioP1;P2;durP2;ratioP2
38603;SDS011;24924;50.054;8.790;2023-11-21T00:00:37;4.30;;;2.03;;
38603;SDS011;24924;50.054;8.790;2023-11-21T00:03:04;3.63;;;2.13;;
38603;SDS011;24924;50.054;8.790;2023-11-21T00:05:30;4.78;;;2.00;;
38603;SDS011;24924;50.054;8.790;2023-11-21T00:07:56;5.05;;;1.75;;
38603;SDS011;24924;50.054;8.790;2023-11-21T00:10:22;4.80;;;2.47;;
38603;SDS011;24924;50.054;8.790;2023-11-21T00:12:48;5.80;;;2.20;;
38603;SDS011;24924;50.054;8.790;2023-11-21T00:15:14;3.47;;;1.92;;
38603;SDS011;24924;50.054;8.790;2023-11-21T00:17:41;3.97;;;2.05;;
38603;SDS011;24924;50.054;8.790;2023-11-21T00:20:07;4.85;;;1.70;;
38603;SDS011;24924;50.054;8.790;2023-11-21T00:22:34;4.13;;;2.03;;
38603;SDS011;24924;50.054;8.790;2023-11-21T00:25:00;4.07;;;2.07;;
38603;SDS011;24924;50.054;8.790;2023-11-21T00:27:28;6.32;;;2.20;;
38603;SDS011;24924;50.054;8.790;2023-11-21T00:29:55;4.40;;;1.83;;
38603;SDS011;24924;50.054;8.790;2023-11-21T00:32:21;3.65;;;1.90;;
38603;SDS011;24924;50.054;8.790;2023-11-21T00:34:47;4.68;;;1.90;;
38603;SDS011;24924;50.054;8.790;2023-11-21T00:37:14;3.77;;;2.00;;
38603;SDS011;24924;50.054;8.790;2023-11-21T00:39:41;4.63;;;1.80;;
38603;SDS011;24924;50.054;8.790;2023-11-21T00:42:07;4.60;;;2.25;;
38603;SDS011;24924;50.054;8.790;2023-11-21T00:44:34;3.75;;;1.83;;
38603;SDS011;24924;50.054;8.790;2023-11-21T00:47:03;6.95;;;2.20;;
38603;SDS011;24924;50.054;8.790;2023-11-21T00:49:29;4.13;;;2.27;;
38603;SDS011;24924;50.054;8.790;2023-11-21T00:51:55;3.67;;;2.13;;
38603;SDS011;24924;50.054;8.790;2023-11-21T00:54:25;4.10;;;2.10;;
38603;SDS011;24924;50.054;8.790;2023-11-21T00:56:51;5.90;;;2.05;;
38603;SDS011;24924;50.054;8.790;2023-11-21T00:59:17;5.40;;;2.00;;
38603;SDS011;24924;50.054;8.790;2023-11-21T01:01:44;4.93;;;1.70;;
38603;SDS011;24924;50.054;8.790;2023-11-21T01:04:10;7.10;;;2.38;;
38603;SDS011;24924;50.054;8.790;2023-11-21T01:06:36;3.95;;;1.92;;
38603;SDS011;24924;50.054;8.790;2023-11-21T01:09:03;4.30;;;2.17;;
38603;SDS011;24924;50.054;8.790;2023-11-21T01:11:36;3.50;;;1.85;;
38603;SDS011;24924;50.054;8.790;2023-11-21T01:14:03;4.10;;;2.33;;
38603;SDS011;24924;50.054;8.790;2023-11-21T01:16:30;3.55;;;1.77;;
38603;SDS011;24924;50.054;8.790;2023-11-21T01:18:58;3.88;;;2.00;;
38603;SDS011;24924;50.054;8.790;2023-11-21T01:21:24;3.38;;;1.95;;
38603;SDS011;24924;50.054;8.790;2023-11-21T01:23:51;3.63;;;2.22;;
38603;SDS011;24924;50.054;8.790;2023-11-21T01:26:17;5.67;;;2.00;;
38603;SDS011;24924;50.054;8.790;2023-11-21T01:28:43;3.42;;;1.80;;
38603;SDS011;24924;50.054;8.790;2023-11-21T01:31:10;6.65;;;2.28;;
38603;SDS011;24924;50.054;8.790;2023-11-21T01:33:36;3.55;;;1.70;;
38603;SDS011;24924;50.054;8.790;2023-11-21T01:36:02;3.85;;;2.20;;
38603;SDS011;24924;50.054;8.790;2023-11-21T01:38:29;3.80;;;2.37;;
38603;SDS011;24924;50.054;8.790;2023-11-21T01:40:55;4.43;;;2.63;;
38603;SDS011;24924;50.054;8.790;2023-11-21T01:43:21;3.47;;;2.10;;
38603;SDS011;24924;50.054;8.790;2023-11-21T01:45:48;3.60;;;2.30;;
38603;SDS011;24924;50.054;8.790;2023-11-21T01:48:14;3.30;;;1.90;;
38603;SDS011;24924;50.054;8.790;2023-11-21T01:50:41;4.50;;;2.70;;
38603;SDS011;24924;50.054;8.790;2023-11-21T01:53:10;3.55;;;1.98;;
38603;SDS011;24924;50.054;8.790;2023-11-21T01:55:38;4.20;;;2.40;;
38603;SDS011;24924;50.054;8.790;2023-11-21T01:58:06;4.10;;;2.20;;
38603;SDS011;24924;50.054;8.790;2023-11-21T02:00:32;4.38;;;2.10;;
38603;SDS011;24924;50.054;8.790;2023-11-21T02:03:00;5.63;;;2.60;;
38603;SDS011;24924;50.054;8.790;2023-11-21T02:05:27;4.13;;;2.25;;
38603;SDS011;24924;50.054;8.790;2023-11-21T02:07:55;5.95;;;2.30;;
38603;SDS011;24924;50.054;8.790;2023-11-21T02:10:21;5.68;;;2.53;;
38603;SDS011;24924;50.054;8.790;2023-11-21T02:12:48;4.07;;;2.30;;
38603;SDS011;24924;50.054;8.790;2023-11-21T02:15:19;4.53;;;2.50;;
38603;SDS011;24924;50.054;8.790;2023-11-21T02:17:46;3.88;;;2.15;;
38603;SDS011;24924;50.054;8.790;2023-11-21T02:20:16;4.18;;;2.38;;
38603;SDS011;24924;50.054;8.790;2023-11-21T02:22:52;4.10;;;2.58;;
38603;SDS011;24924;50.054;8.790;2023-11-21T02:25:27;4.32;;;2.47;;
38603;SDS011;24924;50.054;8.790;2023-11-21T02:27:56;4.37;;;2.50;;
38603;SDS011;24924;50.054;8.790;2023-11-21T02:30:23;4.43;;;2.47;;
38603;SDS011;24924;50.054;8.790;2023-11-21T02:33:02;4.28;;;2.50;;
38603;SDS011;24924;50.054;8.790;2023-11-21T02:35:28;5.10;;;2.30;;
38603;SDS011;24924;50.054;8.790;2023-11-21T02:37:57;5.03;;;2.47;;
38603;SDS011;24924;50.054;8.790;2023-11-21T02:40:23;5.27;;;2.60;;
38603;SDS011;24924;50.054;8.790;2023-11-21T02:42:51;4.10;;;2.50;;
38603;SDS011;24924;50.054;8.790;2023-11-21T02:45:21;4.40;;;2.53;;
38603;SDS011;24924;50.054;8.790;2023-11-21T02:47:47;5.75;;;2.92;;
38603;SDS011;24924;50.054;8.790;2023-11-21T02:50:18;4.43;;;2.80;;
38603;SDS011;24924;50.054;8.790;2023-11-21T02:52:45;6.47;;;2.43;;
38603;SDS011;24924;50.054;8.790;2023-11-21T02:55:13;4.30;;;2.65;;
38603;SDS011;24924;50.054;8.790;2023-11-21T02:57:39;5.05;;;2.60;;
38603;SDS011;24924;50.054;8.790;2023-11-21T03:00:05;4.88;;;2.83;;
38603;SDS011;24924;50.054;8.790;2023-11-21T03:02:33;6.03;;;2.45;;
38603;SDS011;24924;50.054;8.790;2023-11-21T03:05:04;4.87;;;2.17;;
38603;SDS011;24924;50.054;8.790;2023-11-21T03:07:30;5.60;;;2.85;;
38603;SDS011;24924;50.054;8.790;2023-11-21T03:09:57;4.93;;;2.70;;
38603;SDS011;24924;50.054;8.790;2023-11-21T03:12:23;5.25;;;2.70;;
38603;SDS011;24924;50.054;8.790;2023-11-21T03:14:49;4.97;;;2.30;;
38603;SDS011;24924;50.054;8.790;2023-11-21T03:17:16;4.13;;;2.30;;
38603;SDS011;24924;50.054;8.790;2023-11-21T03:19:42;4.72;;;2.63;;
38603;SDS011;24924;50.054;8.790;2023-11-21T03:22:09;3.97;;;2.10;;
38603;SDS011;24924;50.054;8.790;2023-11-21T03:24:35;4.28;;;2.40;;
38603;SDS011;24924;50.054;8.790;2023-11-21T03:27:04;5.90;;;2.75;;
38603;SDS011;24924;50.054;8.790;2023-11-21T03:29:31;3.70;;;2.40;;
38603;SDS011;24924;50.054;8.790;2023-11-21T03:31:57;3.50;;;2.00;;
38603;SDS011;24924;50.054;8.790;2023-11-21T03:34:24;3.95;;;2.10;;
38603;SDS011;24924;50.054;8.790;2023-11-21T03:36:51;4.25;;;2.20;;
38603;SDS011;24924;50.054;8.790;2023-11-21T03:39:19;4.05;;;2.20;;
38603;SDS011;24924;50.054;8.790;2023-11-21T03:41:46;3.23;;;1.87;;
38603;SDS011;24924;50.054;8.790;2023-11-21T03:44:12;3.55;;;1.80;;
38603;SDS011;24924;50.054;8.790;2023-11-21T03:46:39;3.97;;;1.60;;
38603;SDS011;24924;50.054;8.790;2023-11-21T03:49:05;3.10;;;1.80;;
38603;SDS011;24924;50.054;8.790;2023-11-21T03:51:31;3.25;;;1.73;;
38603;SDS011;24924;50.054;8.790;2023-11-21T03:53:58;3.00;;;1.50;;
38603;SDS011;24924;50.054;8.790;2023-11-21T03:56:24;3.35;;;1.80;;
38603;SDS011;24924;50.054;8.790;2023-11-21T03:58:50;3.22;;;1.90;;
38603;SDS011;24924;50.054;8.790;2023-11-21T04:01:23;3.30;;;1.70;;
38603;SDS011;24924;50.054;8.790;2023-11-21T04:03:49;3.53;;;1.70;;
38603;SDS011;24924;50.054;8.790;2023-11-21T04:06:19;3.50;;;2.00;;
38603;SDS011;24924;50.054;8.790;2023-11-21T04:08:45;3.88;;;1.90;;
38603;SDS011;24924;50.054;8.790;2023-11-21T04:11:12;3.25;;;1.75;;
38603;SDS011;24924;50.054;8.790;2023-11-21T04:13:38;3.88;;;1.98;;
38603;SDS011;24924;50.054;8.790;2023-11-21T04:16:08;3.88;;;1.80;;
38603;SDS011;24924;50.054;8.790;2023-11-21T04:18:37;3.23;;;1.97;;
38603;SDS011;24924;50.054;8.790;2023-11-21T04:21:05;3.35;;;1.80;;
38603;SDS011;24924;50.054;8.790;2023-11-21T04:23:31;3.97;;;1.92;;
38603;SDS011;24924;50.054;8.790;2023-11-21T04:25:57;3.47;;;1.88;;
38603;SDS011;24924;50.054;8.790;2023-11-21T04:28:24;3.70;;;1.80;;
38603;SDS011;24924;50.054;8.790;2023-11-21T04:30:50;3.40;;;2.00;;
38603;SDS011;24924;50.054;8.790;2023-11-21T04:33:17;3.30;;;1.75;;
38603;SDS011;24924;50.054;8.790;2023-11-21T04:35:43;3.30;;;1.70;;
38603;SDS011;24924;50.054;8.790;2023-11-21T04:38:09;3.45;;;1.98;;
38603;SDS011;24924;50.054;8.790;2023-11-21T04:40:35;3.00;;;1.60;;
38603;SDS011;24924;50.054;8.790;2023-11-21T04:43:02;3.70;;;2.00;;
38603;SDS011;24924;50.054;8.790;2023-11-21T04:45:29;3.30;;;1.70;;
38603;SDS011;24924;50.054;8.790;2023-11-21T04:47:55;4.38;;;1.80;;
38603;SDS011;24924;50.054;8.790;2023-11-21T04:50:21;3.20;;;1.90;;
38603;SDS011;24924;50.054;8.790;2023-11-21T04:52:48;3.65;;;2.00;;
38603;SDS011;24924;50.054;8.790;2023-11-21T04:55:14;3.30;;;2.00;;
38603;SDS011;24924;50.054;8.790;2023-11-21T04:57:40;3.67;;;2.03;;
38603;SDS011;24924;50.054;8.790;2023-11-21T05:00:08;3.60;;;1.95;;
38603;SDS011;24924;50.054;8.790;2023-11-21T05:02:34;4.18;;;2.20;;
38603;SDS011;24924;50.054;8.790;2023-11-21T05:05:01;5.30;;;2.10;;
38603;SDS011;24924;50.054;8.790;2023-11-21T05:07:27;6.40;;;4.97;;
38603;SDS011;24924;50.054;8.790;2023-11-21T05:09:54;3.90;;;2.20;;
38603;SDS011;24924;50.054;8.790;2023-11-21T05:12:24;5.88;;;2.28;;
38603;SDS011;24924;50.054;8.790;2023-11-21T05:14:50;4.15;;;2.40;;
38603;SDS011;24924;50.054;8.790;2023-11-21T05:17:17;4.68;;;2.40;;
38603;SDS011;24924;50.054;8.790;2023-11-21T05:19:43;3.83;;;2.30;;
38603;SDS011;24924;50.054;8.790;2023-11-21T05:22:11;3.90;;;2.30;;
38603;SDS011;24924;50.054;8.790;2023-11-21T05:24:37;4.47;;;2.60;;
38603;SDS011;24924;50.054;8.790;2023-11-21T05:27:07;5.45;;;3.10;;
38603;SDS011;24924;50.054;8.790;2023-11-21T05:29:34;3.90;;;2.30;;
38603;SDS011;24924;50.054;8.790;2023-11-21T05:32:02;5.67;;;2.47;;
38603;SDS011;24924;50.054;8.790;2023-11-21T05:34:28;4.63;;;2.28;;
38603;SDS011;24924;50.054;8.790;2023-11-21T05:36:55;4.10;;;2.50;;
38603;SDS011;24924;50.054;8.790;2023-11-21T05:39:23;4.55;;;2.40;;
38603;SDS011;24924;50.054;8.790;2023-11-21T05:41:49;4.20;;;2.50;;
38603;SDS011;24924;50.054;8.790;2023-11-21T05:44:16;5.37;;;2.70;;
38603;SDS011;24924;50.054;8.790;2023-11-21T05:46:42;4.57;;;2.55;;
38603;SDS011;24924;50.054;8.790;2023-11-21T05:49:08;4.53;;;2.10;;
38603;SDS011;24924;50.054;8.790;2023-11-21T05:51:34;5.65;;;2.65;;
38603;SDS011;24924;50.054;8.790;2023-11-21T05:54:00;4.68;;;2.53;;
38603;SDS011;24924;50.054;8.790;2023-11-21T05:56:27;5.57;;;2.90;;
38603;SDS011;24924;50.054;8.790;2023-11-21T05:58:53;4.63;;;2.80;;
38603;SDS011;24924;50.054;8.790;2023-11-21T06:01:19;5.22;;;2.92;;
38603;SDS011;24924;50.054;8.790;2023-11-21T06:03:45;5.85;;;3.38;;
38603;SDS011;24924;50.054;8.790;2023-11-21T06:06:12;6.10;;;3.95;;
38603;SDS011;24924;50.054;8.790;2023-11-21T06:08:38;6.00;;;3.80;;
38603;SDS011;24924;50.054;8.790;2023-11-21T06:11:04;6.28;;;3.50;;
38603;SDS011;24924;50.054;8.790;2023-11-21T06:13:30;6.78;;;3.17;;
38603;SDS011;24924;50.054;8.790;2023-11-21T06:15:56;8.55;;;3.30;;
38603;SDS011;24924;50.054;8.790;2023-11-21T06:18:22;5.50;;;3.72;;
38603;SDS011;24924;50.054;8.790;2023-11-21T06:20:48;6.30;;;3.70;;
38603;SDS011;24924;50.054;8.790;2023-11-21T06:23:15;6.10;;;3.63;;
38603;SDS011;24924;50.054;8.790;2023-11-21T06:25:41;7.30;;;3.58;;
38603;SDS011;24924;50.054;8.790;2023-11-21T06:28:07;9.75;;;3.97;;
38603;SDS011;24924;50.054;8.790;2023-11-21T06:30:33;8.43;;;4.53;;
38603;SDS011;24924;50.054;8.790;2023-11-21T06:33:00;10.00;;;6.57;;
38603;SDS011;24924;50.054;8.790;2023-11-21T06:35:26;11.05;;;7.03;;
38603;SDS011;24924;50.054;8.790;2023-11-21T06:37:55;10.45;;;5.65;;
38603;SDS011;24924;50.054;8.790;2023-11-21T06:40:21;14.77;;;7.07;;
38603;SDS011;24924;50.054;8.790;2023-11-21T06:42:48;11.80;;;6.78;;
38603;SDS011;24924;50.054;8.790;2023-11-21T06:45:15;11.20;;;6.27;;
38603;SDS011;24924;50.054;8.790;2023-11-21T06:47:42;10.45;;;5.15;;
38603;SDS011;24924;50.054;8.790;2023-11-21T06:50:08;9.60;;;5.60;;
38603;SDS011;24924;50.054;8.790;2023-11-21T06:52:35;13.77;;;5.57;;
38603;SDS011;24924;50.054;8.790;2023-11-21T06:55:01;11.05;;;6.35;;
38603;SDS011;24924;50.054;8.790;2023-11-21T06:57:27;11.23;;;6.80;;
38603;SDS011;24924;50.054;8.790;2023-11-21T06:59:54;10.73;;;5.03;;
38603;SDS011;24924;50.054;8.790;2023-11-21T07:02:22;10.60;;;4.93;;
38603;SDS011;24924;50.054;8.790;2023-11-21T07:04:49;8.07;;;4.38;;
38603;SDS011;24924;50.054;8.790;2023-11-21T07:07:15;8.30;;;4.72;;
38603;SDS011;24924;50.054;8.790;2023-11-21T07:09:41;11.33;;;4.93;;
38603;SDS011;24924;50.054;8.790;2023-11-21T07:12:08;10.27;;;5.10;;
38603;SDS011;24924;50.054;8.790;2023-11-21T07:14:34;8.18;;;4.78;;
38603;SDS011;24924;50.054;8.790;2023-11-21T07:17:00;10.40;;;4.85;;
38603;SDS011;24924;50.054;8.790;2023-11-21T07:19:27;10.13;;;4.53;;
38603;SDS011;24924;50.054;8.790;2023-11-21T07:21:54;8.50;;;4.20;;
38603;SDS011;24924;50.054;8.790;2023-11-21T07:24:21;8.95;;;4.57;;
38603;SDS011;24924;50.054;8.790;2023-11-21T07:26:51;6.82;;;4.03;;
38603;SDS011;24924;50.054;8.790;2023-11-21T07:29:23;12.50;;;4.80;;
38603;SDS011;24924;50.054;8.790;2023-11-21T07:31:51;9.52;;;4.50;;
38603;SDS011;24924;50.054;8.790;2023-11-21T07:34:18;8.67;;;4.70;;
38603;SDS011;24924;50.054;8.790;2023-11-21T07:36:44;7.63;;;3.38;;
38603;SDS011;24924;50.054;8.790;2023-11-21T07:39:10;7.13;;;3.90;;
38603;SDS011;24924;50.054;8.790;2023-11-21T07:41:36;6.07;;;3.40;;
38603;SDS011;24924;50.054;8.790;2023-11-21T07:44:10;8.60;;;3.67;;
38603;SDS011;24924;50.054;8.790;2023-11-21T07:46:36;6.70;;;3.10;;
38603;SDS011;24924;50.054;8.790;2023-11-21T07:49:03;6.70;;;3.65;;
38603;SDS011;24924;50.054;8.790;2023-11-21T07:51:29;5.63;;;3.00;;
38603;SDS011;24924;50.054;8.790;2023-11-21T07:53:55;6.35;;;3.40;;
38603;SDS011;24924;50.054;8.790;2023-11-21T07:56:22;6.50;;;3.40;;
38603;SDS011;24924;50.054;8.790;2023-11-21T07:58:48;6.10;;;3.03;;
38603;SDS011;24924;50.054;8.790;2023-11-21T08:01:15;6.63;;;2.88;;
38603;SDS011;24924;50.054;8.790;2023-11-21T08:03:41;5.43;;;2.88;;
38603;SDS011;24924;50.054;8.790;2023-11-21T08:06:09;5.70;;;3.22;;
38603;SDS011;24924;50.054;8.790;2023-11-21T08:08:35;5.25;;;3.17;;
38603;SDS011;24924;50.054;8.790;2023-11-21T08:11:02;7.57;;;2.80;;
38603;SDS011;24924;50.054;8.790;2023-11-21T08:13:29;8.02;;;3.13;;
38603;SDS011;24924;50.054;8.790;2023-11-21T08:15:58;5.28;;;2.92;;
38603;SDS011;24924;50.054;8.790;2023-11-21T08:18:28;5.15;;;2.80;;
38603;SDS011;24924;50.054;8.790;2023-11-21T08:20:55;4.70;;;2.60;;
38603;SDS011;24924;50.054;8.790;2023-11-21T08:23:21;5.63;;;3.07;;
38603;SDS011;24924;50.054;8.790;2023-11-21T08:25:51;7.10;;;3.58;;
38603;SDS011;24924;50.054;8.790;2023-11-21T08:28:18;5.88;;;2.70;;
38603;SDS011;24924;50.054;8.790;2023-11-21T08:30:45;6.35;;;3.22;;
38603;SDS011;24924;50.054;8.790;2023-11-21T08:33:11;5.85;;;3.03;;
38603;SDS011;24924;50.054;8.790;2023-11-21T08:35:38;5.23;;;2.90;;
38603;SDS011;24924;50.054;8.790;2023-11-21T08:38:04;6.00;;;3.28;;
38603;SDS011;24924;50.054;8.790;2023-11-21T08:40:31;5.75;;;3.33;;
38603;SDS011;24924;50.054;8.790;2023-11-21T08:42:57;11.18;;;3.63;;
38603;SDS011;24924;50.054;8.790;2023-11-21T08:45:30;7.70;;;3.15;;
38603;SDS011;24924;50.054;8.790;2023-11-21T08:47:57;8.17;;;3.70;;
38603;SDS011;24924;50.054;8.790;2023-11-21T08:50:24;9.52;;;3.22;;
38603;SDS011;24924;50.054;8.790;2023-11-21T08:52:50;6.97;;;3.20;;
38603;SDS011;24924;50.054;8.790;2023-11-21T08:55:16;7.38;;;3.60;;
38603;SDS011;24924;50.054;8.790;2023-11-21T08:57:45;6.63;;;3.65;;
38603;SDS011;24924;50.054;8.790;2023-11-21T09:00:15;9.37;;;4.70;;
38603;SDS011;24924;50.054;8.790;2023-11-21T09:02:42;7.53;;;3.75;;
38603;SDS011;24924;50.054;8.790;2023-11-21T09:05:09;7.85;;;4.13;;
38603;SDS011;24924;50.054;8.790;2023-11-21T09:07:36;7.20;;;3.47;;
38603;SDS011;24924;50.054;8.790;2023-11-21T09:10:03;7.13;;;3.95;;
38603;SDS011;24924;50.054;8.790;2023-11-21T09:12:32;8.37;;;3.90;;
38603;SDS011;24924;50.054;8.790;2023-11-21T09:14:58;7.05;;;3.65;;
38603;SDS011;24924;50.054;8.790;2023-11-21T09:17:25;10.23;;;3.92;;
38603;SDS011;24924;50.054;8.790;2023-11-21T09:19:51;7.18;;;4.18;;
38603;SDS011;24924;50.054;8.790;2023-11-21T09:22:17;9.27;;;4.72;;
38603;SDS011;24924;50.054;8.790;2023-11-21T09:24:44;9.50;;;4.23;;
38603;SDS011;24924;50.054;8.790;2023-11-21T09:27:10;7.85;;;4.50;;
38603;SDS011;24924;50.054;8.790;2023-11-21T09:29:36;9.98;;;4.82;;
38603;SDS011;24924;50.054;8.790;2023-11-21T09:32:04;8.40;;;4.72;;
38603;SDS011;24924;50.054;8.790;2023-11-21T09:34:33;7.68;;;4.03;;
38603;SDS011;24924;50.054;8.790;2023-11-21T09:37:03;9.30;;;4.27;;
38603;SDS011;24924;50.054;8.790;2023-11-21T09:39:31;11.55;;;4.68;;
38603;SDS011;24924;50.054;8.790;2023-11-21T09:42:02;11.00;;;5.45;;
38603;SDS011;24924;50.054;8.790;2023-11-21T09:46:58;6.95;;;4.05;;
38603;SDS011;24924;50.054;8.790;2023-11-21T09:49:25;9.57;;;4.50;;
38603;SDS011;24924;50.054;8.790;2023-11-21T09:51:54;7.75;;;3.95;;
38603;SDS011;24924;50.054;8.790;2023-11-21T09:54:22;8.20;;;4.50;;
38603;SDS011;24924;50.054;8.790;2023-11-21T09:56:49;9.90;;;4.45;;
38603;SDS011;24924;50.054;8.790;2023-11-21T09:59:15;7.65;;;4.10;;
38603;SDS011;24924;50.054;8.790;2023-11-21T10:01:42;9.60;;;5.20;;
38603;SDS011;24924;50.054;8.790;2023-11-21T10:04:09;6.75;;;3.60;;
38603;SDS011;24924;50.054;8.790;2023-11-21T10:06:39;7.38;;;4.45;;
38603;SDS011;24924;50.054;8.790;2023-11-21T10:09:09;8.43;;;4.10;;
38603;SDS011;24924;50.054;8.790;2023-11-21T10:11:43;7.35;;;4.13;;
38603;SDS011;24924;50.054;8.790;2023-11-21T10:14:10;8.27;;;4.40;;
38603;SDS011;24924;50.054;8.790;2023-11-21T10:16:39;6.97;;;4.45;;
38603;SDS011;24924;50.054;8.790;2023-11-21T10:19:06;10.18;;;4.10;;
38603;SDS011;24924;50.054;8.790;2023-11-21T10:21:35;7.38;;;3.90;;
38603;SDS011;24924;50.054;8.790;2023-11-21T10:24:01;8.35;;;4.18;;
38603;SDS011;24924;50.054;8.790;2023-11-21T10:26:28;6.97;;;3.60;;
38603;SDS011;24924;50.054;8.790;2023-11-21T10:29:00;7.28;;;3.53;;
38603;SDS011;24924;50.054;8.790;2023-11-21T10:31:29;7.00;;;3.33;;
38603;SDS011;24924;50.054;8.790;2023-11-21T10:34:18;6.78;;;3.50;;
38603;SDS011;24924;50.054;8.790;2023-11-21T10:36:42;7.55;;;3.60;;
38603;SDS011;24924;50.054;8.790;2023-11-21T10:39:09;5.77;;;3.03;;
38603;SDS011;24924;50.054;8.790;2023-11-21T10:41:35;6.22;;;3.20;;
38603;SDS011;24924;50.054;8.790;2023-11-21T10:44:02;8.93;;;3.75;;
38603;SDS011;24924;50.054;8.790;2023-11-21T10:46:34;7.32;;;3.38;;
38603;SDS011;24924;50.054;8.790;2023-11-21T10:49:00;6.55;;;3.15;;
38603;SDS011;24924;50.054;8.790;2023-11-21T10:51:27;8.00;;;3.60;;
38603;SDS011;24924;50.054;8.790;2023-11-21T10:53:53;7.63;;;3.30;;
38603;SDS011;24924;50.054;8.790;2023-11-21T10:56:20;7.30;;;3.10;;
38603;SDS011;24924;50.054;8.790;2023-11-21T10:58:49;6.05;;;3.03;;
38603;SDS011;24924;50.054;8.790;2023-11-21T11:01:17;5.25;;;2.58;;
38603;SDS011;24924;50.054;8.790;2023-11-21T11:03:44;5.23;;;2.77;;
38603;SDS011;24924;50.054;8.790;2023-11-21T11:06:11;6.95;;;3.00;;
38603;SDS011;24924;50.054;8.790;2023-11-21T11:08:38;5.07;;;2.60;;
38603;SDS011;24924;50.054;8.790;2023-11-21T11:11:05;5.15;;;2.85;;
38603;SDS011;24924;50.054;8.790;2023-11-21T11:13:31;5.55;;;2.58;;
38603;SDS011;24924;50.054;8.790;2023-11-21T11:15:58;4.87;;;2.60;;
38603;SDS011;24924;50.054;8.790;2023-11-21T11:18:26;5.40;;;2.65;;
38603;SDS011;24924;50.054;8.790;2023-11-21T11:20:52;7.18;;;2.67;;
38603;SDS011;24924;50.054;8.790;2023-11-21T11:25:54;5.72;;;2.40;;
38603;SDS011;24924;50.054;8.790;2023-11-21T11:28:27;5.13;;;2.73;;
38603;SDS011;24924;50.054;8.790;2023-11-21T11:36:04;4.30;;;2.40;;
38603;SDS011;24924;50.054;8.790;2023-11-21T11:38:33;5.65;;;2.85;;
38603;SDS011;24924;50.054;8.790;2023-11-21T11:41:04;7.53;;;2.77;;
38603;SDS011;24924;50.054;8.790;2023-11-21T11:43:31;7.00;;;3.05;;
38603;SDS011;24924;50.054;8.790;2023-11-21T11:46:09;9.07;;;2.67;;
38603;SDS011;24924;50.054;8.790;2023-11-21T11:48:38;7.82;;;3.63;;
38603;SDS011;24924;50.054;8.790;2023-11-21T11:51:06;7.82;;;3.28;;
38603;SDS011;24924;50.054;8.790;2023-11-21T11:53:46;8.50;;;3.70;;
38603;SDS011;24924;50.054;8.790;2023-11-21T11:56:19;16.58;;;6.45;;
38603;SDS011;24924;50.054;8.790;2023-11-21T11:58:47;7.28;;;3.25;;
38603;SDS011;24924;50.054;8.790;2023-11-21T12:01:13;8.48;;;3.20;;
38603;SDS011;24924;50.054;8.790;2023-11-21T12:03:39;9.57;;;4.68;;
38603;SDS011;24924;50.054;8.790;2023-11-21T12:06:06;5.87;;;2.97;;
38603;SDS011;24924;50.054;8.790;2023-11-21T12:08:34;8.55;;;3.65;;
38603;SDS011;24924;50.054;8.790;2023-11-21T12:11:01;7.45;;;3.67;;
38603;SDS011;24924;50.054;8.790;2023-11-21T12:13:27;9.55;;;4.00;;
38603;SDS011;24924;50.054;8.790;2023-11-21T12:15:54;9.00;;;4.13;;
38603;SDS011;24924;50.054;8.790;2023-11-21T12:18:20;8.90;;;3.30;;
38603;SDS011;24924;50.054;8.790;2023-11-21T12:20:47;6.40;;;2.58;;
38603;SDS011;24924;50.054;8.790;2023-11-21T12:23:15;5.65;;;3.10;;
38603;SDS011;24924;50.054;8.790;2023-11-21T12:25:42;5.95;;;2.70;;
38603;SDS011;24924;50.054;8.790;2023-11-21T12:28:08;5.22;;;2.67;;
38603;SDS011;24924;50.054;8.790;2023-11-21T12:30:35;5.20;;;2.60;;
38603;SDS011;24924;50.054;8.790;2023-11-21T12:33:03;7.50;;;3.50;;
38603;SDS011;24924;50.054;8.790;2023-11-21T12:35:32;7.18;;;3.17;;
38603;SDS011;24924;50.054;8.790;2023-11-21T12:38:03;6.40;;;3.30;;
38603;SDS011;24924;50.054;8.790;2023-11-21T12:40:30;6.43;;;3.17;;
38603;SDS011;24924;50.054;8.790;2023-11-21T12:42:57;5.83;;;2.80;;
38603;SDS011;24924;50.054;8.790;2023-11-21T12:45:27;6.35;;;3.25;;
38603;SDS011;24924;50.054;8.790;2023-11-21T12:47:58;7.03;;;3.30;;
38603;SDS011;24924;50.054;8.790;2023-11-21T12:50:29;5.97;;;3.20;;
38603;SDS011;24924;50.054;8.790;2023-11-21T12:53:00;5.88;;;3.00;;
38603;SDS011;24924;50.054;8.790;2023-11-21T12:55:29;7.90;;;3.00;;
38603;SDS011;24924;50.054;8.790;2023-11-21T12:57:55;7.93;;;3.28;;
38603;SDS011;24924;50.054;8.790;2023-11-21T13:00:33;6.40;;;2.90;;
38603;SDS011;24924;50.054;8.790;2023-11-21T13:03:03;8.25;;;3.38;;
38603;SDS011;24924;50.054;8.790;2023-11-21T13:05:30;5.43;;;3.10;;
38603;SDS011;24924;50.054;8.790;2023-11-21T13:07:59;6.70;;;3.47;;
38603;SDS011;24924;50.054;8.790;2023-11-21T13:10:28;8.60;;;3.55;;
38603;SDS011;24924;50.054;8.790;2023-11-21T13:12:59;7.80;;;3.17;;
38603;SDS011;24924;50.054;8.790;2023-11-21T13:15:29;6.45;;;3.10;;
38603;SDS011;24924;50.054;8.790;2023-11-21T13:17:57;9.30;;;3.17;;
38603;SDS011;24924;50.054;8.790;2023-11-21T13:20:23;7.80;;;3.13;;
38603;SDS011;24924;50.054;8.790;2023-11-21T13:22:52;7.40;;;3.55;;
38603;SDS011;24924;50.054;8.790;2023-11-21T13:25:29;6.82;;;3.20;;
38603;SDS011;24924;50.054;8.790;2023-11-21T13:27:57;7.10;;;3.13;;
38603;SDS011;24924;50.054;8.790;2023-11-21T13:30:27;6.88;;;3.85;;
38603;SDS011;24924;50.054;8.790;2023-11-21T13:32:59;8.97;;;3.80;;
38603;SDS011;24924;50.054;8.790;2023-11-21T13:35:33;7.03;;;3.60;;
38603;SDS011;24924;50.054;8.790;2023-11-21T13:38:10;9.65;;;3.30;;
38603;SDS011;24924;50.054;8.790;2023-11-21T13:40:38;6.95;;;3.40;;
38603;SDS011;24924;50.054;8.790;2023-11-21T13:43:17;6.07;;;3.30;;
38603;SDS011;24924;50.054;8.790;2023-11-21T13:45:45;12.17;;;3.30;;
38603;SDS011;24924;50.054;8.790;2023-11-21T13:48:12;6.95;;;3.28;;
38603;SDS011;24924;50.054;8.790;2023-11-21T13:50:45;6.60;;;3.45;;
38603;SDS011;24924;50.054;8.790;2023-11-21T13:53:24;7.85;;;3.47;;
38603;SDS011;24924;50.054;8.790;2023-11-21T13:55:50;7.38;;;3.55;;
38603;SDS011;24924;50.054;8.790;2023-11-21T13:58:23;7.30;;;3.53;;
38603;SDS011;24924;50.054;8.790;2023-11-21T14:01:07;8.98;;;3.50;;
38603;SDS011;24924;50.054;8.790;2023-11-21T14:03:49;5.55;;;3.08;;
38603;SDS011;24924;50.054;8.790;2023-11-21T14:06:22;7.45;;;3.30;;
38603;SDS011;24924;50.054;8.790;2023-11-21T14:08:53;6.35;;;3.38;;
38603;SDS011;24924;50.054;8.790;2023-11-21T14:11:22;5.70;;;2.50;;
38603;SDS011;24924;50.054;8.790;2023-11-21T14:13:48;8.82;;;3.47;;
38603;SDS011;24924;50.054;8.790;2023-11-21T14:16:14;7.60;;;3.30;;
38603;SDS011;24924;50.054;8.790;2023-11-21T14:18:42;7.15;;;3.17;;
38603;SDS011;24924;50.054;8.790;2023-11-21T14:21:24;5.23;;;2.87;;
38603;SDS011;24924;50.054;8.790;2023-11-21T14:23:49;7.20;;;2.97;;
38603;SDS011;24924;50.054;8.790;2023-11-21T14:26:15;5.90;;;3.03;;
38603;SDS011;24924;50.054;8.790;2023-11-21T14:28:42;6.03;;;3.20;;
38603;SDS011;24924;50.054;8.790;2023-11-21T14:31:08;7.80;;;3.40;;
38603;SDS011;24924;50.054;8.790;2023-11-21T14:33:40;6.47;;;3.07;;
38603;SDS011;24924;50.054;8.790;2023-11-21T14:36:06;7.97;;;3.40;;
38603;SDS011;24924;50.054;8.790;2023-11-21T14:38:36;6.60;;;3.80;;
38603;SDS011;24924;50.054;8.790;2023-11-21T14:41:05;7.63;;;3.45;;
38603;SDS011;24924;50.054;8.790;2023-11-21T14:43:34;9.15;;;3.30;;
38603;SDS011;24924;50.054;8.790;2023-11-21T14:46:01;7.27;;;3.50;;
38603;SDS011;24924;50.054;8.790;2023-11-21T14:48:41;10.00;;;3.15;;
38603;SDS011;24924;50.054;8.790;2023-11-21T14:51:12;7.50;;;3.30;;
38603;SDS011;24924;50.054;8.790;2023-11-21T14:53:56;6.05;;;3.45;;
38603;SDS011;24924;50.054;8.790;2023-11-21T14:56:34;4.97;;;2.92;;
38603;SDS011;24924;50.054;8.790;2023-11-21T14:59:02;8.43;;;3.23;;
38603;SDS011;24924;50.054;8.790;2023-11-21T15:01:34;7.45;;;3.80;;